Terminal Aerodrome Forecast
Issued by NWS Sioux Falls, SD

Home | Current Version | Previous Version | Graphics & Text | Print | Product List | Glossary Off
Versions: 1 2 3 4 5 6 7 8 9 10 11 12 13 14 15 16 17 18 19 20 21 22 23 24 25 26 27 28 29 30

000
FTUS43 KFSD 012341
TAFSUX
TAF
KSUX 012341Z 0200/0224 10007KT P6SM SCT060 BKN100
     FM020500 11006KT P6SM BKN035
     FM020900 10005KT P6SM BKN025 BKN100
     FM021800 14006KT P6SM OVC035=

USA.gov is the U.S. government's official web portal to all federal, state and local government web resources and services.